Fort Eustis, Virginia
Current Conditions -  °F | °C
As of 4:58 AM on Saturday 25 Oct 2014 (Local Time) from KFAF Reporting Station
Clear Clear  
Wind Chill: 52°   Ceiling: Unl
Heat Index: 52°   Visibility: 10mi
Dew Point: 40°   Wind: 3mph
Humidity: 64%   Direction: 350°N
Pressure: 29.95"   Gusts: NA
Location:  37.13°N, 76.61°W
Report Text: KFAF 250858Z AUTO 35003KT 10SM CLR 11/05 A2995 RMK AO2 SLP145 T01120047 55001 $
Loading
Personal Weather Stations






























Interactive Weather Map New forecast layout! Learn more

10-Day Weather Forecast

Advertisements
Track Severe Weather on mobile